Time,TemperatureF,DewpointF,PressureIn,WindDirection,WindDirectionDegrees,WindSpeedMPH,WindSpeedGustMPH,Humidity,HourlyPrecipIn,Conditions,Clouds,dailyrainin,SoftwareType,DateUTC
2013-01-26 00:02:00,25.0,12.0,-100.00,North,10,13.0,19.0,57,-99.99,,,-99.99,,2013-01-26 06:02:00,
2013-01-26 00:12:00,24.0,10.0,-100.00,North,10,12.0,24.0,55,-99.99,,,-99.99,,2013-01-26 06:12:00,
2013-01-26 00:21:00,23.0,10.0,-100.00,North,10,9.0,16.0,55,-99.99,,,-99.99,,2013-01-26 06:21:00,
2013-01-26 00:32:00,23.0,10.0,-100.00,North,10,9.0,16.0,55,-99.99,,,-99.99,,2013-01-26 06:32:00,
2013-01-26 00:42:00,23.0,9.0,-100.00,North,10,11.0,19.0,55,-99.99,,,-99.99,,2013-01-26 06:42:00,
2013-01-26 00:52:00,22.0,9.0,-100.00,North,10,9.0,14.0,56,-99.99,,,-99.99,,2013-01-26 06:52:00,
2013-01-26 01:02:00,22.0,9.0,-100.00,North,10,9.0,14.0,56,-99.99,,,-99.99,,2013-01-26 07:02:00,
2013-01-26 01:12:00,22.0,9.0,-100.00,North,10,6.0,14.0,58,-99.99,,,-99.99,,2013-01-26 07:12:00,
2013-01-26 01:21:00,21.0,9.0,-100.00,North,10,9.0,19.0,59,-99.99,,,-99.99,,2013-01-26 07:21:00,
2013-01-26 01:33:00,21.0,9.0,-100.00,North,10,9.0,19.0,59,-99.99,,,-99.99,,2013-01-26 07:33:00,
2013-01-26 01:41:00,21.0,9.0,-100.00,North,10,9.0,15.0,60,-99.99,,,-99.99,,2013-01-26 07:41:00,
2013-01-26 01:52:00,20.0,9.0,-100.00,North,10,9.0,16.0,60,-99.99,,,-99.99,,2013-01-26 07:52:00,
2013-01-26 02:02:00,20.0,9.0,-100.00,North,10,9.0,16.0,60,-99.99,,,-99.99,,2013-01-26 08:02:00,
2013-01-26 02:11:00,20.0,9.0,-100.00,North,10,8.0,14.0,61,-99.99,,,-99.99,,2013-01-26 08:11:00,
2013-01-26 02:21:00,20.0,9.0,-100.00,North,10,9.0,14.0,62,-99.99,,,-99.99,,2013-01-26 08:21:00,
2013-01-26 02:32:00,20.0,9.0,-100.00,North,10,9.0,14.0,62,-99.99,,,-99.99,,2013-01-26 08:32:00,
2013-01-26 02:42:00,19.0,9.0,-100.00,North,10,8.0,14.0,62,-99.99,,,-99.99,,2013-01-26 08:42:00,
2013-01-26 02:54:00,19.0,9.0,-100.00,North,10,10.0,15.0,63,-99.99,,,-99.99,,2013-01-26 08:54:00,
2013-01-26 03:02:00,19.0,9.0,-100.00,North,10,10.0,15.0,63,-99.99,,,-99.99,,2013-01-26 09:02:00,
2013-01-26 03:11:00,19.0,9.0,-100.00,North,10,6.0,10.0,64,-99.99,,,-99.99,,2013-01-26 09:11:00,
2013-01-26 03:22:00,18.0,8.0,-100.00,North,10,6.0,11.0,64,-99.99,,,-99.99,,2013-01-26 09:22:00,
2013-01-26 03:32:00,18.0,8.0,-100.00,North,10,6.0,11.0,64,-99.99,,,-99.99,,2013-01-26 09:32:00,
2013-01-26 03:42:00,18.0,8.0,-100.00,North,10,5.0,9.0,65,-99.99,,,-99.99,,2013-01-26 09:42:00,
2013-01-26 03:52:00,17.0,8.0,-100.00,North,10,4.0,10.0,65,-99.99,,,-99.99,,2013-01-26 09:52:00,
2013-01-26 04:01:00,17.0,8.0,-100.00,North,10,4.0,10.0,65,-99.99,,,-99.99,,2013-01-26 10:01:00,
2013-01-26 04:12:00,17.0,8.0,-100.00,North,10,6.0,11.0,66,-99.99,,,-99.99,,2013-01-26 10:12:00,
2013-01-26 04:21:00,17.0,8.0,-100.00,North,10,4.0,7.0,66,-99.99,,,-99.99,,2013-01-26 10:21:00,
2013-01-26 04:32:00,17.0,8.0,-100.00,North,10,4.0,7.0,66,-99.99,,,-99.99,,2013-01-26 10:32:00,
2013-01-26 04:42:00,17.0,8.0,-100.00,North,10,5.0,7.0,67,-99.99,,,-99.99,,2013-01-26 10:42:00,
2013-01-26 04:52:00,17.0,8.0,-100.00,North,10,4.0,5.0,67,-99.99,,,-99.99,,2013-01-26 10:52:00,
2013-01-26 05:01:00,17.0,8.0,-100.00,North,10,4.0,5.0,67,-99.99,,,-99.99,,2013-01-26 11:01:00,
2013-01-26 05:12:00,17.0,8.0,-100.00,North,10,6.0,7.0,68,-99.99,,,-99.99,,2013-01-26 11:12:00,
2013-01-26 05:22:00,16.0,8.0,-100.00,North,10,5.0,6.0,69,-99.99,,,-99.99,,2013-01-26 11:22:00,
2013-01-26 05:32:00,16.0,8.0,-100.00,North,10,5.0,6.0,69,-99.99,,,-99.99,,2013-01-26 11:32:00,
2013-01-26 05:42:00,16.0,8.0,-100.00,North,10,6.0,8.0,70,-99.99,,,-99.99,,2013-01-26 11:42:00,
2013-01-26 05:52:00,16.0,8.0,-100.00,North,10,4.0,7.0,71,-99.99,,,-99.99,,2013-01-26 11:52:00,
2013-01-26 06:02:00,16.0,8.0,-100.00,North,10,4.0,7.0,71,-99.99,,,-99.99,,2013-01-26 12:02:00,
2013-01-26 06:12:00,15.0,8.0,-100.00,North,10,4.0,7.0,72,-99.99,,,-99.99,,2013-01-26 12:12:00,
2013-01-26 06:22:00,15.0,8.0,-100.00,North,10,2.0,6.0,72,-99.99,,,-99.99,,2013-01-26 12:22:00,
2013-01-26 06:33:00,15.0,8.0,-100.00,North,10,2.0,6.0,72,-99.99,,,-99.99,,2013-01-26 12:33:00,
2013-01-26 06:42:00,15.0,8.0,-100.00,North,10,4.0,7.0,72,-99.99,,,-99.99,,2013-01-26 12:42:00,
2013-01-26 06:53:00,15.0,7.0,-100.00,North,10,6.0,10.0,73,-99.99,,,-99.99,,2013-01-26 12:53:00,
2013-01-26 07:03:00,15.0,7.0,-100.00,North,10,6.0,10.0,73,-99.99,,,-99.99,,2013-01-26 13:03:00,
2013-01-26 07:12:00,14.0,7.0,-100.00,North,10,4.0,7.0,73,-99.99,,,-99.99,,2013-01-26 13:12:00,
2013-01-26 07:22:00,14.0,7.0,-100.00,North,10,3.0,5.0,74,-99.99,,,-99.99,,2013-01-26 13:22:00,
2013-01-26 07:32:00,14.0,7.0,-100.00,North,10,3.0,5.0,74,-99.99,,,-99.99,,2013-01-26 13:32:00,
2013-01-26 07:42:00,14.0,7.0,-100.00,North,10,3.0,5.0,74,-99.99,,,-99.99,,2013-01-26 13:42:00,
2013-01-26 07:53:00,14.0,8.0,-100.00,North,10,4.0,6.0,75,-99.99,,,-99.99,,2013-01-26 13:53:00,
2013-01-26 08:03:00,14.0,8.0,-100.00,North,10,4.0,6.0,75,-99.99,,,-99.99,,2013-01-26 14:03:00,
2013-01-26 08:12:00,14.0,8.0,-100.00,North,10,4.0,6.0,75,-99.99,,,-99.99,,2013-01-26 14:12:00,
2013-01-26 08:22:00,14.0,8.0,-100.00,North,10,5.0,9.0,76,-99.99,,,-99.99,,2013-01-26 14:22:00,
2013-01-26 08:32:00,14.0,8.0,-100.00,North,10,5.0,9.0,76,-99.99,,,-99.99,,2013-01-26 14:32:00,
2013-01-26 08:43:00,15.0,9.0,-100.00,North,10,6.0,10.0,76,-99.99,,,-99.99,,2013-01-26 14:43:00,
2013-01-26 08:53:00,16.0,10.0,-100.00,North,10,6.0,10.0,75,-99.99,,,-99.99,,2013-01-26 14:53:00,
2013-01-26 09:03:00,16.0,10.0,-100.00,North,10,6.0,10.0,75,-99.99,,,-99.99,,2013-01-26 15:03:00,
2013-01-26 09:12:00,17.0,10.0,-100.00,North,10,6.0,10.0,74,-99.99,,,-99.99,,2013-01-26 15:12:00,
2013-01-26 09:22:00,18.0,11.0,-100.00,North,10,6.0,9.0,73,-99.99,,,-99.99,,2013-01-26 15:22:00,
2013-01-26 09:32:00,18.0,11.0,-100.00,North,10,6.0,9.0,73,-99.99,,,-99.99,,2013-01-26 15:32:00,
2013-01-26 09:43:00,19.0,11.0,-100.00,North,10,4.0,14.0,71,-99.99,,,-99.99,,2013-01-26 15:43:00,
2013-01-26 09:53:00,19.0,11.0,-100.00,North,10,8.0,12.0,69,-99.99,,,-99.99,,2013-01-26 15:53:00,
2013-01-26 10:02:00,19.0,11.0,-100.00,North,10,8.0,12.0,69,-99.99,,,-99.99,,2013-01-26 16:02:00,
2013-01-26 10:12:00,21.0,11.0,-100.00,North,10,5.0,11.0,67,-99.99,,,-99.99,,2013-01-26 16:12:00,
2013-01-26 10:22:00,22.0,12.0,-100.00,North,10,6.0,9.0,66,-99.99,,,-99.99,,2013-01-26 16:22:00,
2013-01-26 10:33:00,24.0,13.0,-100.00,North,10,3.0,8.0,64,-99.99,,,-99.99,,2013-01-26 16:33:00,
2013-01-26 10:42:00,24.0,13.0,-100.00,North,10,3.0,8.0,64,-99.99,,,-99.99,,2013-01-26 16:42:00,
2013-01-26 10:53:00,25.0,14.0,-100.00,North,10,0.0,3.0,61,-99.99,,,-99.99,,2013-01-26 16:53:00,
2013-01-26 11:03:00,25.0,14.0,-100.00,North,10,0.0,3.0,61,-99.99,,,-99.99,,2013-01-26 17:03:00,
2013-01-26 11:13:00,25.0,13.0,-100.00,North,10,3.0,7.0,59,-99.99,,,-99.99,,2013-01-26 17:13:00,
2013-01-26 11:22:00,26.0,13.0,-100.00,North,5,1.0,5.0,58,-99.99,,,-99.99,,2013-01-26 17:22:00,
2013-01-26 11:33:00,26.0,13.0,-100.00,North,5,1.0,5.0,58,-99.99,,,-99.99,,2013-01-26 17:33:00,
2013-01-26 11:42:00,27.0,13.0,-100.00,North,5,1.0,4.0,56,-99.99,,,-99.99,,2013-01-26 17:42:00,
2013-01-26 11:53:00,28.0,14.0,-100.00,North,5,4.0,6.0,54,-99.99,,,-99.99,,2013-01-26 17:53:00,
2013-01-26 12:02:00,28.0,14.0,-100.00,North,5,4.0,6.0,54,-99.99,,,-99.99,,2013-01-26 18:02:00,
2013-01-26 12:12:00,28.0,13.0,-100.00,North,5,1.0,4.0,53,-99.99,,,-99.99,,2013-01-26 18:12:00,
2013-01-26 12:22:00,30.0,14.0,-100.00,North,5,3.0,5.0,51,-99.99,,,-99.99,,2013-01-26 18:22:00,
2013-01-26 12:33:00,30.0,14.0,-100.00,North,5,3.0,5.0,51,-99.99,,,-99.99,,2013-01-26 18:33:00,
2013-01-26 12:42:00,30.0,14.0,-100.00,North,5,1.0,4.0,51,-99.99,,,-99.99,,2013-01-26 18:42:00,
2013-01-26 12:53:00,28.0,13.0,-100.00,North,5,5.0,9.0,51,-99.99,,,-99.99,,2013-01-26 18:53:00,
2013-01-26 13:03:00,28.0,13.0,-100.00,North,5,5.0,9.0,51,-99.99,,,-99.99,,2013-01-26 19:03:00,
2013-01-26 13:12:00,31.0,14.0,-100.00,North,5,2.0,7.0,50,-99.99,,,-99.99,,2013-01-26 19:12:00,
2013-01-26 13:22:00,32.0,14.0,-100.00,North,5,2.0,5.0,48,-99.99,,,-99.99,,2013-01-26 19:22:00,
2013-01-26 13:32:00,32.0,14.0,-100.00,North,5,2.0,5.0,48,-99.99,,,-99.99,,2013-01-26 19:32:00,
2013-01-26 13:42:00,33.0,15.0,-100.00,North,5,0.0,5.0,47,-99.99,,,-99.99,,2013-01-26 19:42:00,
2013-01-26 13:53:00,31.0,13.0,-100.00,North,5,1.0,6.0,47,-99.99,,,-99.99,,2013-01-26 19:53:00,
2013-01-26 14:02:00,31.0,13.0,-100.00,North,5,1.0,6.0,47,-99.99,,,-99.99,,2013-01-26 20:02:00,
2013-01-26 14:11:00,33.0,15.0,-100.00,North,5,2.0,4.0,46,-99.99,,,-99.99,,2013-01-26 20:11:00,
2013-01-26 14:22:00,33.0,14.0,-100.00,North,5,1.0,4.0,45,-99.99,,,-99.99,,2013-01-26 20:22:00,
2013-01-26 14:32:00,33.0,14.0,-100.00,North,5,1.0,4.0,45,-99.99,,,-99.99,,2013-01-26 20:32:00,
2013-01-26 14:42:00,33.0,14.0,-100.00,North,5,3.0,6.0,45,-99.99,,,-99.99,,2013-01-26 20:42:00,
2013-01-26 14:52:00,34.0,15.0,-100.00,North,5,1.0,6.0,45,-99.99,,,-99.99,,2013-01-26 20:52:00,
2013-01-26 15:02:00,34.0,15.0,-100.00,North,5,1.0,6.0,45,-99.99,,,-99.99,,2013-01-26 21:02:00,
2013-01-26 15:12:00,32.0,14.0,-100.00,North,5,4.0,6.0,46,-99.99,,,-99.99,,2013-01-26 21:12:00,
2013-01-26 15:22:00,33.0,14.0,-100.00,North,5,1.0,7.0,46,-99.99,,,-99.99,,2013-01-26 21:22:00,
2013-01-26 15:32:00,32.0,14.0,-100.00,North,5,6.0,7.0,47,-99.99,,,-99.99,,2013-01-26 21:32:00,
2013-01-26 15:42:00,32.0,14.0,-100.00,North,5,6.0,7.0,47,-99.99,,,-99.99,,2013-01-26 21:42:00,
2013-01-26 15:52:00,33.0,15.0,-100.00,North,5,1.0,4.0,47,-99.99,,,-99.99,,2013-01-26 21:52:00,
2013-01-26 16:01:00,33.0,15.0,-100.00,North,5,1.0,4.0,47,-99.99,,,-99.99,,2013-01-26 22:01:00,
2013-01-26 16:11:00,33.0,15.0,-100.00,North,5,1.0,2.0,47,-99.99,,,-99.99,,2013-01-26 22:11:00,
2013-01-26 16:22:00,33.0,15.0,-100.00,North,5,1.0,3.0,47,-99.99,,,-99.99,,2013-01-26 22:22:00,
2013-01-26 16:32:00,33.0,15.0,-100.00,North,5,1.0,3.0,47,-99.99,,,-99.99,,2013-01-26 22:32:00,
2013-01-26 16:42:00,33.0,15.0,-100.00,North,5,4.0,5.0,47,-99.99,,,-99.99,,2013-01-26 22:42:00,
2013-01-26 16:52:00,33.0,15.0,-100.00,North,5,5.0,8.0,47,-99.99,,,-99.99,,2013-01-26 22:52:00,
2013-01-26 17:01:00,33.0,15.0,-100.00,North,5,5.0,8.0,47,-99.99,,,-99.99,,2013-01-26 23:01:00,
2013-01-26 17:12:00,32.0,14.0,-100.00,North,5,1.0,4.0,47,-99.99,,,-99.99,,2013-01-26 23:12:00,
2013-01-26 17:22:00,32.0,15.0,-100.00,North,5,0.0,4.0,48,-99.99,,,-99.99,,2013-01-26 23:22:00,
2013-01-26 17:32:00,32.0,15.0,-100.00,North,5,0.0,4.0,48,-99.99,,,-99.99,,2013-01-26 23:32:00,
2013-01-26 17:42:00,31.0,14.0,-100.00,North,5,1.0,1.0,48,-99.99,,,-99.99,,2013-01-26 23:42:00,
2013-01-26 17:52:00,31.0,14.0,-100.00,North,5,6.0,9.0,49,-99.99,,,-99.99,,2013-01-26 23:52:00,
2013-01-26 18:02:00,31.0,14.0,-100.00,North,5,6.0,9.0,49,-99.99,,,-99.99,,2013-01-27 00:02:00,
2013-01-26 18:11:00,30.0,13.0,-100.00,North,5,6.0,9.0,49,-99.99,,,-99.99,,2013-01-27 00:11:00,
2013-01-26 18:21:00,30.0,13.0,-100.00,North,5,6.0,9.0,49,-99.99,,,-99.99,,2013-01-27 00:21:00,
2013-01-26 18:32:00,30.0,13.0,-100.00,North,5,6.0,9.0,49,-99.99,,,-99.99,,2013-01-27 00:32:00,
2013-01-26 18:42:00,30.0,13.0,-100.00,North,10,8.0,11.0,49,-99.99,,,-99.99,,2013-01-27 00:42:00,
2013-01-26 18:52:00,29.0,13.0,-100.00,North,10,6.0,10.0,50,-99.99,,,-99.99,,2013-01-27 00:52:00,
2013-01-26 19:01:00,29.0,13.0,-100.00,North,10,6.0,10.0,50,-99.99,,,-99.99,,2013-01-27 01:01:00,
2013-01-26 19:11:00,29.0,13.0,-100.00,North,10,5.0,8.0,51,-99.99,,,-99.99,,2013-01-27 01:11:00,
2013-01-26 19:22:00,29.0,13.0,-100.00,North,10,4.0,8.0,51,-99.99,,,-99.99,,2013-01-27 01:22:00,
2013-01-26 19:32:00,29.0,13.0,-100.00,North,10,4.0,8.0,51,-99.99,,,-99.99,,2013-01-27 01:32:00,
2013-01-26 19:42:00,29.0,14.0,-100.00,North,10,2.0,8.0,52,-99.99,,,-99.99,,2013-01-27 01:42:00,
2013-01-26 19:52:00,29.0,13.0,-100.00,North,10,2.0,4.0,52,-99.99,,,-99.99,,2013-01-27 01:52:00,
2013-01-26 20:01:00,29.0,13.0,-100.00,North,10,2.0,4.0,52,-99.99,,,-99.99,,2013-01-27 02:01:00,
2013-01-26 20:12:00,29.0,14.0,-100.00,North,10,4.0,5.0,53,-99.99,,,-99.99,,2013-01-27 02:12:00,
2013-01-26 20:22:00,29.0,14.0,-100.00,North,10,4.0,6.0,53,-99.99,,,-99.99,,2013-01-27 02:22:00,
2013-01-26 20:32:00,29.0,14.0,-100.00,North,10,4.0,6.0,53,-99.99,,,-99.99,,2013-01-27 02:32:00,
2013-01-26 20:42:00,29.0,14.0,-100.00,North,10,4.0,6.0,54,-99.99,,,-99.99,,2013-01-27 02:42:00,
2013-01-26 20:52:00,29.0,14.0,-100.00,North,10,5.0,10.0,54,-99.99,,,-99.99,,2013-01-27 02:52:00,
2013-01-26 21:02:00,29.0,14.0,-100.00,North,10,5.0,10.0,54,-99.99,,,-99.99,,2013-01-27 03:02:00,
2013-01-26 21:11:00,29.0,15.0,-100.00,North,10,6.0,12.0,55,-99.99,,,-99.99,,2013-01-27 03:11:00,
2013-01-26 21:21:00,29.0,15.0,-100.00,North,10,7.0,10.0,55,-99.99,,,-99.99,,2013-01-27 03:21:00,
2013-01-26 21:32:00,29.0,15.0,-100.00,North,10,7.0,10.0,55,-99.99,,,-99.99,,2013-01-27 03:32:00,
2013-01-26 21:42:00,30.0,16.0,-100.00,North,10,10.0,14.0,55,-99.99,,,-99.99,,2013-01-27 03:42:00,
2013-01-26 21:52:00,29.0,16.0,-100.00,North,10,12.0,16.0,56,-99.99,,,-99.99,,2013-01-27 03:52:00,
2013-01-26 22:01:00,29.0,16.0,-100.00,North,10,6.0,14.0,57,-99.99,,,-99.99,,2013-01-27 04:01:00,
2013-01-26 22:02:00,29.0,16.0,-100.00,North,10,12.0,16.0,56,-99.99,,,-99.99,,2013-01-27 04:02:00,
2013-01-26 22:11:00,29.0,16.0,-100.00,North,10,8.0,13.0,56,-99.99,,,-99.99,,2013-01-27 04:11:00,
2013-01-26 22:21:00,29.0,16.0,-100.00,North,10,9.0,13.0,57,-99.99,,,-99.99,,2013-01-27 04:21:00,
2013-01-26 22:32:00,29.0,16.0,-100.00,North,10,6.0,14.0,57,-99.99,,,-99.99,,2013-01-27 04:32:00,
2013-01-26 22:41:00,29.0,16.0,-100.00,North,10,6.0,14.0,57,-99.99,,,-99.99,,2013-01-27 04:41:00,
2013-01-26 22:52:00,29.0,16.0,-100.00,North,10,6.0,14.0,57,-99.99,,,-99.99,,2013-01-27 04:52:00,
2013-01-26 23:12:00,29.0,16.0,-100.00,North,10,6.0,10.0,59,-99.99,,,-99.99,,2013-01-27 05:12:00,
2013-01-26 23:22:00,29.0,16.0,-100.00,North,5,6.0,10.0,60,-99.99,,,-99.99,,2013-01-27 05:22:00,
2013-01-26 23:32:00,29.0,16.0,-100.00,North,5,6.0,10.0,60,-99.99,,,-99.99,,2013-01-27 05:32:00,
2013-01-26 23:41:00,29.0,17.0,-100.00,North,10,8.0,11.0,61,-99.99,,,-99.99,,2013-01-27 05:41:00,
2013-01-26 23:52:00,29.0,17.0,-100.00,North,10,8.0,11.0,62,-99.99,,,-99.99,,2013-01-27 05:52:00,